Accueil
METAR-TAF:

METAR-TAF

Aéroports :

Aéroport du Touquet-Côte d'Opale

Le Touquet, France

latitude: 50-30-53N, longitude: 001-37-39E, altitude: 6 m

Observation

Le bulletin a été fait il y a 31 minutes, à 02:30 UTC
Vent calme
Température 13°C
Humidité 100%
Pression 1017 hPa
Visibilité: 7000 m

METAR: LFAT 170230Z AUTO 00000KT 7000 NSC 13/13 Q1017

Heure: 05:01 (03:01 UTC)

Prévision

Le bulletin a été fait il y a 11 heures et 32 minutes, à 15:29 UTC
Prévision valable du 16 à 15 UTC au 16 à 24 UTC
Vent 10 kt de ouest
Visibilité 10 km ou plus
Nuages fragmentés à une hauteur de 1300 ft
Temporairement
du 16 à 18 UTC au 16 à 21 UTC
Visibilité: 4000 m
pluie

TAF: LFAT 161529Z 1615/1624 27010KT 9999 BKN013 TEMPO 1618/1621 4000 RA

Observations et prévisions météorologiques de plus de 4000 aéroports (messages METAR et TAF).

Les stations disponibles sont représentées par des disques jaunes et rouges sur la carte.

Passer la souris dessus pour voir le nom de la station.

Cliquer dessus pour voir les observations et prévisions météorologiques.

Pour changer de carte: cliquez sur les boutons verts avec une croix noire pour zoomer, sur le bouton vert avec un tiret pour effectuer un zoom arrière, ou sur les flèches vertes pour les cartes adjacentes.


METAR-TAF: